TimeCDT,TemperatureF,Dew PointF,Humidity,Sea Level PressureIn,VisibilityMPH,Wind Direction,Wind SpeedMPH,Gust SpeedMPH,PrecipitationIn,Events,Conditions,WindDirDegrees,DateUTC
12:15 AM,39.9,37.4,91,29.99,10.0,Calm,Calm,-,N/A,,Clear,0,2012-10-16 05:15:00
12:35 AM,39.6,37.6,93,29.98,10.0,Calm,Calm,-,N/A,,Clear,0,2012-10-16 05:35:00
12:55 AM,38.8,37.0,93,29.98,10.0,Calm,Calm,-,N/A,,Clear,0,2012-10-16 05:55:00
1:15 AM,39.2,37.4,93,29.98,10.0,East,3.5,-,N/A,,Clear,90,2012-10-16 06:15:00
1:35 AM,39.2,37.9,95,29.98,10.0,ESE,3.5,-,N/A,,Clear,110,2012-10-16 06:35:00
1:55 AM,39.7,37.8,93,29.98,10.0,ESE,4.6,-,N/A,,Clear,110,2012-10-16 06:55:00
2:15 AM,40.1,37.4,90,29.97,10.0,SE,3.5,-,N/A,,Clear,130,2012-10-16 07:15:00
2:35 AM,38.3,35.6,90,29.97,10.0,East,4.6,-,N/A,,Clear,100,2012-10-16 07:35:00
2:55 AM,39.7,37.0,90,29.96,10.0,ESE,4.6,-,N/A,,Clear,120,2012-10-16 07:55:00
3:15 AM,39.0,36.1,89,29.95,10.0,East,4.6,-,N/A,,Clear,100,2012-10-16 08:15:00
3:35 AM,38.3,35.6,90,29.95,10.0,ESE,3.5,-,N/A,,Clear,110,2012-10-16 08:35:00
3:55 AM,38.3,36.0,91,29.95,10.0,ESE,4.6,-,N/A,,Clear,110,2012-10-16 08:55:00
4:15 AM,39.2,37.4,93,29.95,10.0,ESE,5.8,-,N/A,,Clear,110,2012-10-16 09:15:00
4:35 AM,39.2,35.6,87,29.94,10.0,ESE,5.8,-,N/A,,Clear,110,2012-10-16 09:35:00
4:55 AM,39.2,35.6,87,29.95,10.0,SE,5.8,-,N/A,,Clear,130,2012-10-16 09:55:00
5:15 AM,38.8,36.1,90,29.95,10.0,SE,4.6,-,N/A,,Clear,130,2012-10-16 10:15:00
5:35 AM,37.4,34.9,91,29.94,10.0,East,5.8,-,N/A,,Clear,100,2012-10-16 10:35:00
5:55 AM,37.6,35.6,93,29.94,10.0,ESE,5.8,-,N/A,,Clear,120,2012-10-16 10:55:00
6:15 AM,37.6,35.2,91,29.94,10.0,ESE,5.8,-,N/A,,Clear,110,2012-10-16 11:15:00
6:35 AM,37.8,35.6,92,29.93,10.0,SE,5.8,-,N/A,,Clear,130,2012-10-16 11:35:00
6:55 AM,38.5,35.8,90,29.92,10.0,ESE,5.8,-,N/A,,Clear,120,2012-10-16 11:55:00
7:15 AM,39.9,36.5,88,29.92,10.0,SE,6.9,-,N/A,,Clear,130,2012-10-16 12:15:00
7:35 AM,40.5,36.9,87,29.92,10.0,SE,6.9,-,N/A,,Clear,130,2012-10-16 12:35:00
7:55 AM,41.2,37.6,87,29.92,10.0,ESE,6.9,-,N/A,,Clear,120,2012-10-16 12:55:00
8:15 AM,42.8,39.2,87,29.92,10.0,SE,8.1,-,N/A,,Clear,130,2012-10-16 13:15:00
8:35 AM,45.3,39.7,81,29.91,10.0,SE,5.8,-,N/A,,Clear,130,2012-10-16 13:35:00
8:55 AM,48.2,41.2,77,29.91,10.0,SE,8.1,-,N/A,,Clear,140,2012-10-16 13:55:00
9:15 AM,51.3,43.0,73,29.91,10.0,SSE,11.5,16.1,N/A,,Clear,150,2012-10-16 14:15:00
9:35 AM,54.1,43.9,68,29.91,10.0,SE,10.4,-,N/A,,Clear,140,2012-10-16 14:35:00
9:55 AM,55.0,42.3,62,29.91,10.0,SSE,11.5,-,N/A,,Clear,150,2012-10-16 14:55:00
10:15 AM,57.2,43.2,59,29.89,10.0,SE,10.4,-,N/A,,Clear,140,2012-10-16 15:15:00
10:35 AM,59.0,44.6,59,29.89,10.0,SSE,10.4,17.3,N/A,,Clear,150,2012-10-16 15:35:00
10:55 AM,60.8,44.6,55,29.88,10.0,SSE,13.8,18.4,N/A,,Clear,160,2012-10-16 15:55:00
11:15 AM,61.9,43.3,51,29.86,10.0,SSE,16.1,24.2,N/A,,Clear,160,2012-10-16 16:15:00
11:35 AM,63.3,44.4,50,29.86,10.0,SSE,16.1,21.9,N/A,,Clear,150,2012-10-16 16:35:00
11:55 AM,64.4,43.7,47,29.83,10.0,SSE,18.4,24.2,N/A,,Clear,160,2012-10-16 16:55:00
12:15 PM,65.3,43.5,45,29.82,10.0,SSE,16.1,23.0,N/A,,Clear,160,2012-10-16 17:15:00
12:35 PM,65.7,44.1,46,29.80,10.0,SE,17.3,21.9,N/A,,Clear,140,2012-10-16 17:35:00
12:55 PM,66.6,44.2,44,29.78,10.0,SE,17.3,23.0,N/A,,Clear,140,2012-10-16 17:55:00
1:15 PM,66.6,44.1,44,29.77,10.0,SSE,17.3,26.5,N/A,,Clear,160,2012-10-16 18:15:00
1:35 PM,68.4,45.3,44,29.75,10.0,SE,19.6,24.2,N/A,,Clear,140,2012-10-16 18:35:00
1:55 PM,68.4,45.0,43,29.73,10.0,SSE,17.3,26.5,N/A,,Clear,150,2012-10-16 18:55:00
2:15 PM,68.2,45.9,45,29.72,10.0,SE,13.8,23.0,N/A,,Clear,140,2012-10-16 19:15:00
2:35 PM,68.9,45.7,43,29.70,10.0,SSE,17.3,23.0,N/A,,Clear,160,2012-10-16 19:35:00
2:55 PM,69.4,45.7,42,29.69,10.0,SE,20.7,26.5,N/A,,Clear,140,2012-10-16 19:55:00
3:15 PM,70.7,46.6,42,29.68,10.0,SSE,17.3,24.2,N/A,,Clear,150,2012-10-16 20:15:00
3:35 PM,68.9,45.9,44,29.67,10.0,SSE,19.6,27.6,N/A,,Clear,160,2012-10-16 20:35:00
3:55 PM,69.1,46.0,44,29.66,10.0,SSE,16.1,26.5,N/A,,Clear,160,2012-10-16 20:55:00
4:15 PM,68.9,46.6,45,29.65,10.0,SSE,17.3,25.3,N/A,,Clear,150,2012-10-16 21:15:00
4:35 PM,68.0,46.4,46,29.65,10.0,SSE,12.7,23.0,N/A,,Clear,160,2012-10-16 21:35:00
4:55 PM,68.9,47.3,46,29.64,10.0,SSE,17.3,25.3,N/A,,Clear,160,2012-10-16 21:55:00
5:15 PM,68.2,47.1,47,29.64,10.0,SSE,13.8,23.0,N/A,,Clear,160,2012-10-16 22:15:00
5:35 PM,66.7,47.3,50,29.63,10.0,SSE,15.0,19.6,N/A,,Scattered Clouds,160,2012-10-16 22:35:00
5:55 PM,66.2,47.5,51,29.63,10.0,SSE,13.8,18.4,N/A,,Scattered Clouds,160,2012-10-16 22:55:00
6:15 PM,66.2,47.7,51,29.63,10.0,SSE,12.7,21.9,N/A,,Mostly Cloudy,160,2012-10-16 23:15:00
6:35 PM,65.7,47.8,53,29.63,10.0,SSE,16.1,20.7,N/A,,Overcast,160,2012-10-16 23:35:00
6:55 PM,65.3,48.2,54,29.63,10.0,SSE,13.8,21.9,N/A,,Overcast,160,2012-10-16 23:55:00
7:15 PM,65.1,48.2,54,29.62,10.0,SSE,16.1,23.0,N/A,,Overcast,160,2012-10-17 00:15:00
7:35 PM,64.8,48.4,55,29.62,10.0,SSE,13.8,24.2,N/A,,Mostly Cloudy,160,2012-10-17 00:35:00
7:55 PM,64.6,48.4,56,29.63,10.0,SSE,13.8,21.9,N/A,,Mostly Cloudy,160,2012-10-17 00:55:00
8:15 PM,64.4,48.4,56,29.63,10.0,SSE,11.5,18.4,N/A,,Overcast,150,2012-10-17 01:15:00
8:35 PM,64.4,48.9,57,29.61,10.0,SSE,12.7,20.7,N/A,,Mostly Cloudy,160,2012-10-17 01:35:00
8:55 PM,64.4,49.1,58,29.61,10.0,SSE,16.1,24.2,N/A,,Scattered Clouds,160,2012-10-17 01:55:00
9:15 PM,64.6,49.1,57,29.61,10.0,SSE,15.0,25.3,N/A,,Scattered Clouds,160,2012-10-17 02:15:00
9:35 PM,64.4,49.5,58,29.61,10.0,SSE,13.8,21.9,N/A,,Mostly Cloudy,160,2012-10-17 02:35:00
9:55 PM,64.4,50.0,59,29.61,10.0,South,16.1,20.7,N/A,,Scattered Clouds,170,2012-10-17 02:55:00
10:15 PM,64.6,50.5,60,29.62,10.0,South,16.1,23.0,N/A,,Scattered Clouds,170,2012-10-17 03:15:00
10:35 PM,64.8,50.9,61,29.62,10.0,South,16.1,21.9,N/A,,Clear,170,2012-10-17 03:35:00
10:55 PM,64.8,50.9,61,29.62,10.0,South,18.4,23.0,N/A,,Clear,180,2012-10-17 03:55:00
11:15 PM,64.8,51.1,61,29.62,10.0,South,19.6,25.3,N/A,,Clear,180,2012-10-17 04:15:00
11:35 PM,64.4,51.8,64,29.62,10.0,South,16.1,25.3,N/A,,Clear,180,2012-10-17 04:35:00
11:55 PM,63.0,51.3,66,29.62,10.0,South,16.1,23.0,N/A,,Clear,190,2012-10-17 04:55:00